createdAt,value
2023-04-02T00:00:23.698Z,10.35
2023-04-02T00:03:12.674Z,10.26
2023-04-02T00:06:02.622Z,10.31
2023-04-02T00:08:54.383Z,10.30
2023-04-02T00:11:46.611Z,10.14
2023-04-02T00:14:36.583Z,10.21
2023-04-02T00:17:27.303Z,10.16
2023-04-02T00:20:20.028Z,10.11
2023-04-02T00:23:12.884Z,10.00
2023-04-02T00:26:01.884Z,9.90
2023-04-02T00:28:51.902Z,9.95
2023-04-02T00:31:46.483Z,9.77
2023-04-02T00:34:39.257Z,9.72
2023-04-02T00:37:38.904Z,9.76
2023-04-02T00:40:32.922Z,9.75
2023-04-02T00:43:30.594Z,9.70
2023-04-02T00:46:25.250Z,9.59
2023-04-02T00:49:25.794Z,9.61
2023-04-02T00:52:19.671Z,9.67
2023-04-02T00:55:17.837Z,9.73
2023-04-02T00:58:18.428Z,9.77
2023-04-02T01:01:20.106Z,9.72
2023-04-02T01:04:34.113Z,9.85
2023-04-02T01:07:43.896Z,9.86
2023-04-02T01:11:00.711Z,9.85
2023-04-02T01:14:03.743Z,10.00
2023-04-02T01:17:01.619Z,9.98
2023-04-02T01:20:38.306Z,10.01
2023-04-02T01:23:39.689Z,9.88
2023-04-02T01:26:53.044Z,9.88
2023-04-02T01:29:53.399Z,9.87
2023-04-02T01:32:43.804Z,9.93
2023-04-02T01:35:41.514Z,9.84
2023-04-02T01:38:42.493Z,9.85
2023-04-02T01:41:44.051Z,9.86
2023-04-02T01:44:40.507Z,9.94
2023-04-02T01:47:30.895Z,9.85
2023-04-02T01:50:31.755Z,9.85
2023-04-02T01:53:25.020Z,9.77
2023-04-02T01:56:14.641Z,9.73
2023-04-02T01:59:06.002Z,9.76
2023-04-02T02:02:03.804Z,9.83
2023-04-02T02:04:56.228Z,9.70
2023-04-02T02:07:46.584Z,9.82
2023-04-02T02:10:40.844Z,9.69
2023-04-02T02:13:32.096Z,9.71
2023-04-02T02:16:21.959Z,9.75
2023-04-02T02:19:25.447Z,9.77
2023-04-02T02:22:25.975Z,9.73
2023-04-02T02:25:20.181Z,9.84
2023-04-02T02:28:16.682Z,9.85
2023-04-02T02:31:13.627Z,9.69
2023-04-02T02:34:10.165Z,9.67
2023-04-02T02:37:07.759Z,9.75
2023-04-02T02:40:01.767Z,9.91
2023-04-02T02:42:58.664Z,9.96
2023-04-02T02:45:49.909Z,9.90
2023-04-02T02:48:42.000Z,9.86
2023-04-02T02:51:43.275Z,9.84
2023-04-02T02:54:39.735Z,9.83
2023-04-02T02:57:34.819Z,9.81
2023-04-02T03:00:25.096Z,9.83
2023-04-02T03:03:21.827Z,9.75
2023-04-02T03:06:20.659Z,9.64
2023-04-02T03:09:27.338Z,9.62
2023-04-02T03:12:37.649Z,9.73
2023-04-02T03:15:36.692Z,9.72
2023-04-02T03:18:44.816Z,9.71
2023-04-02T03:21:43.620Z,9.75
2023-04-02T03:24:42.319Z,9.77
2023-04-02T03:27:39.661Z,9.71
2023-04-02T03:30:39.656Z,9.78
2023-04-02T03:33:36.870Z,9.78
2023-04-02T03:36:34.804Z,9.65
2023-04-02T03:39:34.428Z,9.76
2023-04-02T03:42:26.320Z,9.61
2023-04-02T03:45:25.373Z,9.69
2023-04-02T03:48:25.853Z,9.60
2023-04-02T03:51:21.713Z,9.65
2023-04-02T03:54:17.332Z,9.65
2023-04-02T03:57:10.628Z,9.72
2023-04-02T04:00:09.231Z,9.74
2023-04-02T04:03:14.033Z,9.76
2023-04-02T04:06:09.434Z,9.80
2023-04-02T04:09:08.173Z,9.51
2023-04-02T04:12:15.955Z,9.56
2023-04-02T04:15:15.437Z,9.58
2023-04-02T04:18:19.554Z,9.64
2023-04-02T04:21:30.903Z,9.73
2023-04-02T04:24:28.867Z,9.67
2023-04-02T04:27:33.806Z,9.71
2023-04-02T04:30:34.802Z,9.83
2023-04-02T04:33:34.592Z,9.62
2023-04-02T04:36:33.391Z,9.78
2023-04-02T04:39:41.246Z,9.79
2023-04-02T04:42:35.426Z,9.77
2023-04-02T04:45:47.598Z,9.75
2023-04-02T04:48:53.152Z,9.69
2023-04-02T04:51:49.084Z,9.83
2023-04-02T04:54:41.101Z,9.75
2023-04-02T04:57:36.426Z,9.82
2023-04-02T05:00:43.271Z,9.84
2023-04-02T05:03:39.257Z,9.77
2023-04-02T05:06:41.470Z,9.79
2023-04-02T05:09:37.194Z,9.91
2023-04-02T05:12:37.431Z,9.89
2023-04-02T05:15:40.121Z,9.85
2023-04-02T05:18:36.458Z,9.82
2023-04-02T05:21:38.877Z,9.84
2023-04-02T05:24:54.579Z,9.71
2023-04-02T05:27:53.577Z,9.82
2023-04-02T05:30:52.544Z,9.85
2023-04-02T05:33:48.713Z,9.86
2023-04-02T05:36:40.531Z,9.89
2023-04-02T05:39:30.304Z,9.76
2023-04-02T05:42:25.687Z,9.69
2023-04-02T05:45:31.241Z,9.76
2023-04-02T05:48:28.945Z,9.87
2023-04-02T05:51:25.889Z,9.90
2023-04-02T05:54:26.193Z,9.99
2023-04-02T05:57:39.369Z,10.07
2023-04-02T06:00:53.512Z,10.15
2023-04-02T06:03:55.428Z,10.08
2023-04-02T06:06:54.906Z,10.12
2023-04-02T06:09:52.151Z,10.03
2023-04-02T06:12:48.544Z,9.90
2023-04-02T06:15:40.842Z,10.12
2023-04-02T06:18:38.772Z,10.26
2023-04-02T06:21:28.453Z,10.24
2023-04-02T06:24:24.202Z,10.40
2023-04-02T06:27:22.690Z,10.57
2023-04-02T06:30:20.395Z,10.56
2023-04-02T06:33:15.534Z,10.68
2023-04-02T06:36:12.461Z,10.87
2023-04-02T06:39:09.837Z,11.01
2023-04-02T06:42:05.418Z,11.15
2023-04-02T06:45:24.821Z,11.05
2023-04-02T06:48:38.827Z,11.01
2023-04-02T06:51:31.379Z,10.94
2023-04-02T06:54:21.678Z,10.72
2023-04-02T06:57:16.300Z,10.76
2023-04-02T07:00:24.959Z,10.68
2023-04-02T07:03:21.403Z,10.88
2023-04-02T07:06:17.622Z,11.19
2023-04-02T07:09:08.152Z,11.14
2023-04-02T07:12:00.598Z,11.31
2023-04-02T07:14:49.918Z,11.54
2023-04-02T07:17:40.726Z,11.69
2023-04-02T07:20:33.355Z,11.60
2023-04-02T07:23:27.604Z,11.65
2023-04-02T07:26:20.303Z,11.43
2023-04-02T07:29:10.285Z,11.24
2023-04-02T07:31:59.210Z,11.02
2023-04-02T07:34:49.492Z,11.07
2023-04-02T07:37:39.021Z,10.98
2023-04-02T07:40:27.939Z,11.03
2023-04-02T07:43:16.826Z,11.32
2023-04-02T07:46:07.181Z,11.43
2023-04-02T07:48:56.060Z,11.32
2023-04-02T07:51:46.888Z,11.60
2023-04-02T07:54:38.196Z,11.25
2023-04-02T07:57:27.459Z,11.41
2023-04-02T08:00:18.207Z,11.64
2023-04-02T08:03:07.182Z,11.30
2023-04-02T08:05:59.740Z,11.42
2023-04-02T08:08:50.032Z,11.29
2023-04-02T08:11:38.882Z,11.22
2023-04-02T08:14:27.705Z,11.15
2023-04-02T08:17:16.567Z,11.39
2023-04-02T08:20:08.088Z,11.24
2023-04-02T08:22:58.198Z,11.11
2023-04-02T08:25:48.570Z,11.11
2023-04-02T08:28:37.898Z,10.99
2023-04-02T08:31:27.077Z,10.94
2023-04-02T08:34:15.922Z,10.98
2023-04-02T08:37:04.773Z,11.03
2023-04-02T08:39:53.707Z,10.95
2023-04-02T08:42:53.898Z,11.13
2023-04-02T08:46:00.834Z,11.59
2023-04-02T08:48:58.733Z,11.68
2023-04-02T08:51:48.704Z,11.75
2023-04-02T08:54:38.583Z,12.16
2023-04-02T08:57:41.601Z,12.21
2023-04-02T09:00:38.194Z,11.85
2023-04-02T09:03:33.867Z,11.85
2023-04-02T09:06:24.162Z,11.63
2023-04-02T09:09:16.666Z,11.56
2023-04-02T09:12:08.363Z,11.87
2023-04-02T09:15:18.452Z,12.23
2023-04-02T09:18:17.713Z,12.35
2023-04-02T09:21:31.496Z,12.33
2023-04-02T09:24:20.478Z,12.38
2023-04-02T09:27:21.501Z,12.39
2023-04-02T09:30:29.607Z,12.20
2023-04-02T09:33:20.253Z,12.13
2023-04-02T09:36:33.993Z,11.96
2023-04-02T09:39:26.966Z,11.87
2023-04-02T09:42:34.058Z,11.63
2023-04-02T09:45:26.742Z,11.73
2023-04-02T09:48:30.435Z,11.90
2023-04-02T09:51:23.136Z,11.98
2023-04-02T09:54:17.758Z,11.62
2023-04-02T09:57:06.936Z,11.91
2023-04-02T10:00:30.669Z,11.64
2023-04-02T10:03:27.701Z,11.14
2023-04-02T10:06:17.724Z,10.14
2023-04-02T10:09:27.134Z,9.86
2023-04-02T10:12:16.976Z,9.75
2023-04-02T10:15:08.434Z,9.90
2023-04-02T10:18:09.262Z,10.30
2023-04-02T10:21:04.452Z,10.03
2023-04-02T10:23:53.473Z,10.16
2023-04-02T10:26:57.869Z,10.07
2023-04-02T10:30:05.410Z,10.17
2023-04-02T10:33:02.200Z,9.89
2023-04-02T10:36:07.785Z,9.74
2023-04-02T10:39:05.200Z,9.76
2023-04-02T10:42:03.020Z,9.86
2023-04-02T10:45:02.436Z,9.77
2023-04-02T10:48:03.024Z,9.69
2023-04-02T10:51:02.149Z,9.60
2023-04-02T10:54:03.860Z,9.86
2023-04-02T10:56:55.063Z,9.90
2023-04-02T10:59:52.459Z,9.99
2023-04-02T11:02:49.962Z,9.84
2023-04-02T11:05:47.254Z,9.82
2023-04-02T11:08:44.967Z,9.78
2023-04-02T11:11:41.377Z,9.81
2023-04-02T11:14:32.686Z,9.82
2023-04-02T11:17:22.822Z,9.97
2023-04-02T11:20:57.290Z,9.30
2023-04-02T11:24:01.270Z,9.10
2023-04-02T11:26:50.912Z,9.20
2023-04-02T11:29:42.175Z,9.22
2023-04-02T11:32:42.639Z,9.35
2023-04-02T11:35:40.982Z,9.49
2023-04-02T11:38:55.016Z,9.63
2023-04-02T11:42:23.522Z,9.58
2023-04-02T11:45:53.721Z,9.81
2023-04-02T11:48:43.193Z,10.02
2023-04-02T11:51:59.230Z,10.34
2023-04-02T11:55:06.770Z,10.28
2023-04-02T11:58:36.728Z,10.28
2023-04-02T12:02:04.138Z,10.18
2023-04-02T12:05:28.221Z,9.91
2023-04-02T12:08:30.468Z,9.72
2023-04-02T12:11:31.453Z,9.55
2023-04-02T12:14:46.925Z,9.37
2023-04-02T12:17:39.324Z,8.99
2023-04-02T12:20:31.738Z,9.12
2023-04-02T12:23:25.071Z,9.06
2023-04-02T12:26:37.117Z,9.05
2023-04-02T12:29:27.869Z,9.27
2023-04-02T12:32:27.807Z,8.97
2023-04-02T12:35:31.814Z,9.30
2023-04-02T12:38:24.982Z,9.33
2023-04-02T12:41:25.096Z,9.41
2023-04-02T12:44:17.579Z,9.45
2023-04-02T12:47:06.636Z,9.49
2023-04-02T12:50:00.688Z,9.58
2023-04-02T12:52:54.956Z,9.74
2023-04-02T12:55:49.472Z,9.69
2023-04-02T12:58:41.469Z,9.63
2023-04-02T13:01:33.947Z,9.51
2023-04-02T13:04:22.999Z,9.61
2023-04-02T13:07:20.378Z,9.50
2023-04-02T13:10:26.697Z,9.23
2023-04-02T13:13:22.630Z,9.28
2023-04-02T13:16:30.067Z,8.97
2023-04-02T13:19:32.134Z,9.03
2023-04-02T13:22:33.165Z,8.93
2023-04-02T13:25:30.873Z,8.88
2023-04-02T13:28:19.904Z,8.69
2023-04-02T13:31:17.248Z,8.82
2023-04-02T13:34:06.542Z,8.49
2023-04-02T13:36:57.205Z,8.64
2023-04-02T13:39:48.149Z,8.73
2023-04-02T13:42:37.311Z,8.82
2023-04-02T13:45:30.463Z,8.78
2023-04-02T13:48:19.465Z,8.63
2023-04-02T13:51:09.899Z,8.64
2023-04-02T13:53:59.643Z,8.58
2023-04-02T13:56:50.149Z,8.48
2023-04-02T13:59:39.086Z,8.42
2023-04-02T14:02:28.470Z,8.26
2023-04-02T14:05:33.807Z,8.40
2023-04-02T14:08:34.651Z,8.09
2023-04-02T14:11:42.515Z,8.02
2023-04-02T14:14:56.941Z,8.01
2023-04-02T14:18:05.894Z,7.66
2023-04-02T14:21:11.548Z,7.72
2023-04-02T14:24:19.035Z,7.76
2023-04-02T14:27:23.665Z,7.78
2023-04-02T14:30:23.999Z,8.07
2023-04-02T14:33:30.094Z,7.88
2023-04-02T14:36:31.060Z,8.41
2023-04-02T14:39:35.914Z,8.52
2023-04-02T14:42:34.249Z,8.54
2023-04-02T14:45:53.329Z,8.25
2023-04-02T14:48:54.344Z,8.36
2023-04-02T14:51:50.092Z,8.73
2023-04-02T14:54:50.057Z,8.75
2023-04-02T14:57:44.687Z,8.88
2023-04-02T15:00:42.420Z,9.01
2023-04-02T15:03:43.358Z,8.60
2023-04-02T15:06:37.890Z,8.41
2023-04-02T15:09:35.016Z,8.28
2023-04-02T15:12:31.025Z,8.08
2023-04-02T15:15:40.346Z,8.01
2023-04-02T15:18:31.129Z,7.80
2023-04-02T15:25:03.888Z,7.73
2023-04-02T15:28:16.069Z,7.63
2023-04-02T15:31:14.416Z,7.67
2023-04-02T15:34:28.442Z,8.00
2023-04-02T15:37:29.008Z,8.25
2023-04-02T15:40:39.404Z,7.79
2023-04-02T15:43:32.681Z,7.67
2023-04-02T15:46:33.600Z,7.72
2023-04-02T15:49:43.155Z,7.91
2023-04-02T15:52:44.912Z,7.53
2023-04-02T15:55:43.527Z,7.57
2023-04-02T15:58:55.861Z,7.56
2023-04-02T16:01:59.104Z,7.37
2023-04-02T16:05:03.513Z,7.38
2023-04-02T16:08:36.785Z,7.41
2023-04-02T16:11:27.367Z,6.97
2023-04-02T16:14:28.119Z,7.09
2023-04-02T16:17:25.868Z,7.07
2023-04-02T16:20:27.367Z,7.03
2023-04-02T16:23:22.712Z,7.33
2023-04-02T16:26:29.465Z,7.26
2023-04-02T16:29:55.689Z,7.11
2023-04-02T16:33:06.621Z,6.99
2023-04-02T16:36:14.594Z,6.83
2023-04-02T16:39:20.677Z,6.64
2023-04-02T16:42:26.770Z,6.77
2023-04-02T16:45:31.012Z,6.81
2023-04-02T16:48:34.477Z,6.81
2023-04-02T16:51:39.085Z,6.68
2023-04-02T16:54:41.488Z,6.65
2023-04-02T16:57:45.950Z,6.65
2023-04-02T17:00:45.606Z,6.57
2023-04-02T17:03:57.163Z,6.48
2023-04-02T17:07:01.349Z,6.33
2023-04-02T17:09:53.343Z,6.18
2023-04-02T17:12:48.310Z,6.04
2023-04-02T17:15:40.204Z,5.97
2023-04-02T17:18:29.401Z,5.94
2023-04-02T17:21:24.996Z,5.89
2023-04-02T17:24:27.726Z,5.97
2023-04-02T17:27:26.568Z,5.90
2023-04-02T17:30:23.504Z,5.81
2023-04-02T17:33:14.290Z,5.77
2023-04-02T17:36:22.227Z,5.76
2023-04-02T17:39:23.405Z,5.61
2023-04-02T17:42:22.174Z,5.60
2023-04-02T17:45:21.900Z,5.39
2023-04-02T17:48:22.514Z,5.41
2023-04-02T17:51:21.991Z,5.55
2023-04-02T17:54:32.998Z,5.33
2023-04-02T17:57:43.873Z,5.19
2023-04-02T18:00:47.544Z,5.15
2023-04-02T18:03:58.190Z,5.15
2023-04-02T18:07:00.022Z,5.22
2023-04-02T18:10:04.373Z,5.18
2023-04-02T18:13:01.624Z,5.22
2023-04-02T18:16:19.451Z,5.36
2023-04-02T18:19:19.181Z,5.24
2023-04-02T18:22:20.615Z,5.06
2023-04-02T18:25:28.718Z,5.20
2023-04-02T18:28:49.188Z,5.09
2023-04-02T18:31:49.558Z,5.12
2023-04-02T18:34:54.537Z,5.14
2023-04-02T18:38:09.185Z,5.32
2023-04-02T18:41:12.243Z,5.19
2023-04-02T18:44:20.218Z,5.20
2023-04-02T18:47:20.882Z,5.21
2023-04-02T18:50:19.453Z,5.17
2023-04-02T18:53:14.353Z,5.11
2023-04-02T18:56:10.195Z,5.10
2023-04-02T18:59:15.591Z,4.99
2023-04-02T19:02:32.389Z,5.01
2023-04-02T19:05:33.275Z,4.96
2023-04-02T19:08:30.244Z,4.99
2023-04-02T19:11:28.751Z,4.98
2023-04-02T19:14:19.918Z,5.02
2023-04-02T19:17:18.180Z,5.10
2023-04-02T19:20:23.922Z,5.04
2023-04-02T19:23:36.435Z,5.22
2023-04-02T19:26:40.084Z,5.16
2023-04-02T19:29:45.057Z,5.20
2023-04-02T19:32:53.009Z,5.22
2023-04-02T19:35:48.986Z,5.01
2023-04-02T19:39:05.516Z,5.15
2023-04-02T19:42:04.348Z,5.11
2023-04-02T19:44:55.411Z,5.19
2023-04-02T19:47:44.431Z,5.28
2023-04-02T19:50:33.422Z,5.22
2023-04-02T19:53:22.426Z,5.25
2023-04-02T19:56:11.584Z,5.10
2023-04-02T19:59:07.641Z,5.27
2023-04-02T20:02:06.601Z,5.48
2023-04-02T20:04:56.561Z,5.51
2023-04-02T20:07:46.027Z,5.46
2023-04-02T20:10:35.252Z,5.43
2023-04-02T20:13:24.311Z,5.46
2023-04-02T20:16:14.899Z,5.31
2023-04-02T20:19:04.171Z,5.30
2023-04-02T20:21:53.159Z,5.23
2023-04-02T20:24:42.708Z,5.34
2023-04-02T20:27:32.465Z,5.30
2023-04-02T20:30:21.606Z,5.38
2023-04-02T20:33:14.005Z,5.41
2023-04-02T20:36:06.727Z,5.32
2023-04-02T20:38:57.395Z,5.14
2023-04-02T20:41:46.743Z,5.14
2023-04-02T20:44:36.097Z,5.05
2023-04-02T20:47:24.931Z,5.12
2023-04-02T20:50:15.779Z,5.15
2023-04-02T20:53:04.780Z,5.04
2023-04-02T20:55:53.922Z,5.08
2023-04-02T20:58:44.642Z,5.17
2023-04-02T21:01:33.579Z,5.21
2023-04-02T21:04:22.653Z,5.12
2023-04-02T21:07:13.027Z,5.16
2023-04-02T21:10:02.043Z,5.30
2023-04-02T21:12:51.072Z,5.05
2023-04-02T21:15:43.561Z,5.15
2023-04-02T21:18:32.884Z,5.18
2023-04-02T21:21:23.842Z,5.13
2023-04-02T21:24:14.206Z,4.93
2023-04-02T21:27:03.096Z,4.98
2023-04-02T21:29:51.935Z,5.12
2023-04-02T21:32:40.989Z,4.88
2023-04-02T21:35:29.939Z,4.86
2023-04-02T21:38:18.821Z,4.88
2023-04-02T21:41:15.323Z,4.94
2023-04-02T21:44:07.507Z,4.89
2023-04-02T21:46:56.509Z,4.99
2023-04-02T21:49:45.420Z,4.96
2023-04-02T21:52:34.288Z,5.01
2023-04-02T21:55:23.226Z,4.99
2023-04-02T21:58:13.487Z,4.99
2023-04-02T22:01:02.821Z,5.12
2023-04-02T22:03:52.548Z,5.15
2023-04-02T22:06:43.476Z,5.07
2023-04-02T22:09:32.360Z,5.16
2023-04-02T22:12:21.568Z,5.14
2023-04-02T22:15:12.989Z,5.15
2023-04-02T22:18:02.002Z,5.08
2023-04-02T22:20:55.454Z,5.00
2023-04-02T22:23:45.971Z,5.13
2023-04-02T22:26:36.387Z,5.04
2023-04-02T22:29:25.756Z,5.04
2023-04-02T22:32:16.173Z,5.12
2023-04-02T22:35:05.573Z,5.10
2023-04-02T22:37:54.391Z,5.17
2023-04-02T22:40:43.269Z,5.02
2023-04-02T22:43:32.190Z,4.92
2023-04-02T22:46:22.150Z,4.85
2023-04-02T22:49:12.671Z,4.88
2023-04-02T22:52:01.683Z,5.01
2023-04-02T22:54:50.657Z,5.09
2023-04-02T22:57:39.858Z,4.97
2023-04-02T23:00:28.817Z,4.85
2023-04-02T23:03:17.864Z,4.84
2023-04-02T23:06:11.542Z,4.70
2023-04-02T23:09:00.546Z,4.60
2023-04-02T23:11:49.528Z,4.59
2023-04-02T23:14:38.446Z,4.61
2023-04-02T23:17:27.584Z,4.73
2023-04-02T23:20:16.556Z,4.75
2023-04-02T23:23:07.655Z,4.63
2023-04-02T23:26:06.201Z,4.58
2023-04-02T23:28:55.256Z,4.51
2023-04-02T23:31:44.435Z,4.75
2023-04-02T23:34:33.450Z,4.73
2023-04-02T23:37:22.357Z,4.78
2023-04-02T23:40:13.063Z,4.62
2023-04-02T23:43:02.128Z,4.47
2023-04-02T23:45:51.574Z,4.48
2023-04-02T23:48:40.523Z,4.53
2023-04-02T23:51:32.433Z,4.46
2023-04-02T23:54:21.413Z,4.57
2023-04-02T23:57:12.025Z,4.69
